Spalding, Michigan
Current Conditions -  °F | °C
As of 9:15 AM on Friday 31 Oct 2014 (Local Time) from KESC Reporting Station
Broken Clouds Broken Clouds  
Wind Chill: 24°   Ceiling: 3100
Heat Index: 32°   Visibility: 10mi
Dew Point: 25°   Wind: 9mph
Humidity: 75%   Direction: 10°N
Pressure: 30.28"   Gusts: 21mph
Location:  45.7°N, 87.51°W
Report Text: KESC 311415Z AUTO 01008G18KT 10SM FEW020 SCT027 BKN031 00/M04 A3028 RMK AO1
Loading
Personal Weather Stations






























Interactive Weather Map
Tropical Storm Tracking
New forecast layout! Learn more

10-Day Weather Forecast

Advertisements
Track Severe Weather on mobile